DAL2153 KSFO-KLAX
Flight info
| Callsign | DAL2153 |
|---|---|
| Flight time | 0h 59m |
| Altitude | 35000 |
| Route | WESLA5 SUSEY EBAYE BURGL IRNMN2 |
| Aircraft | B739/M-SDE2E3FGHIRWXY/LB1 |
Departure
| Time | 2026-05-06 17:58 |
|---|---|
| Airport | San Francisco International Airport (KSFO) |
Arrival
| Time | 2026-05-06 18:57 |
|---|---|
| Airport | Los Angeles International Airport (KLAX) |
| Time | Latitude | Longitude | Altitude | Speed | Heading |
|---|---|---|---|---|---|
| 2026-05-06 17:34 | 37.61122 | -122.38474 | 33 ft | 0 kts | 300° |
| 2026-05-06 17:46 | 37.61117 | -122.38464 | 33 ft | 2 kts | 300° |
| 2026-05-06 17:46 | 37.61110 | -122.38448 | 33 ft | 2 kts | 300° |
| 2026-05-06 17:46 | 37.61102 | -122.38431 | 33 ft | 2 kts | 300° |
| 2026-05-06 17:47 | 37.61094 | -122.38416 | 33 ft | 2 kts | 316° |
| 2026-05-06 17:47 | 37.61082 | -122.38404 | 33 ft | 2 kts | 328° |
| 2026-05-06 17:47 | 37.61072 | -122.38397 | 33 ft | 2 kts | 340° |
| 2026-05-06 17:47 | 37.61058 | -122.38393 | 33 ft | 2 kts | 354° |
| 2026-05-06 17:48 | 37.61042 | -122.38393 | 33 ft | 2 kts | 8° |
| 2026-05-06 17:48 | 37.61028 | -122.38398 | 33 ft | 2 kts | 23° |
| 2026-05-06 17:48 | 37.61020 | -122.38403 | 33 ft | 1 kts | 31° |
| 2026-05-06 17:48 | 37.61017 | -122.38406 | 33 ft | 0 kts | 32° |
| 2026-05-06 17:50 | 37.61028 | -122.38397 | 33 ft | 7 kts | 32° |
| 2026-05-06 17:50 | 37.61096 | -122.38348 | 32 ft | 11 kts | 30° |
| 2026-05-06 17:50 | 37.61144 | -122.38314 | 32 ft | 10 kts | 30° |
| 2026-05-06 17:50 | 37.61185 | -122.38284 | 32 ft | 10 kts | 30° |
| 2026-05-06 17:51 | 37.61249 | -122.38239 | 32 ft | 12 kts | 29° |
| 2026-05-06 17:51 | 37.61352 | -122.38171 | 32 ft | 17 kts | 26° |
| 2026-05-06 17:51 | 37.61465 | -122.38097 | 31 ft | 19 kts | 28° |
| 2026-05-06 17:51 | 37.61507 | -122.38069 | 31 ft | 19 kts | 28° |
| 2026-05-06 17:52 | 37.61577 | -122.38023 | 31 ft | 18 kts | 27° |
| 2026-05-06 17:52 | 37.61674 | -122.37927 | 30 ft | 17 kts | 72° |
| 2026-05-06 17:52 | 37.61668 | -122.37771 | 28 ft | 18 kts | 96° |
| 2026-05-06 17:53 | 37.61663 | -122.37711 | 26 ft | 18 kts | 98° |
| 2026-05-06 17:53 | 37.61663 | -122.37710 | 26 ft | 18 kts | 98° |
| 2026-05-06 17:53 | 37.61639 | -122.37548 | 24 ft | 18 kts | 96° |
| 2026-05-06 17:53 | 37.61626 | -122.37382 | 21 ft | 19 kts | 96° |
| 2026-05-06 17:54 | 37.61596 | -122.37221 | 19 ft | 19 kts | 116° |
| 2026-05-06 17:54 | 37.61535 | -122.37072 | 17 ft | 19 kts | 117° |
| 2026-05-06 17:54 | 37.61469 | -122.36928 | 15 ft | 19 kts | 127° |
| 2026-05-06 17:54 | 37.61379 | -122.36802 | 14 ft | 18 kts | 122° |
| 2026-05-06 17:55 | 37.61317 | -122.36662 | 13 ft | 17 kts | 118° |
| 2026-05-06 17:55 | 37.61259 | -122.36526 | 13 ft | 17 kts | 119° |
| 2026-05-06 17:55 | 37.61201 | -122.36389 | 12 ft | 18 kts | 118° |
| 2026-05-06 17:55 | 37.61193 | -122.36372 | 12 ft | 18 kts | 118° |
| 2026-05-06 17:56 | 37.61166 | -122.36305 | 12 ft | 17 kts | 117° |
| 2026-05-06 17:56 | 37.61111 | -122.36170 | 12 ft | 16 kts | 117° |
| 2026-05-06 17:56 | 37.61058 | -122.36046 | 12 ft | 15 kts | 118° |
| 2026-05-06 17:56 | 37.61079 | -122.35928 | 12 ft | 14 kts | 44° |
| 2026-05-06 17:57 | 37.61165 | -122.35894 | 12 ft | 13 kts | 344° |
| 2026-05-06 17:57 | 37.61258 | -122.36036 | 12 ft | 32 kts | 297° |
| 2026-05-06 17:57 | 37.61485 | -122.36581 | 13 ft | 108 kts | 298° |
| 2026-05-06 17:57 | 37.61933 | -122.37656 | 31 ft | 168 kts | 298° |
| 2026-05-06 17:58 | 37.62485 | -122.38971 | 814 ft | 168 kts | 298° |
| 2026-05-06 17:58 | 37.63066 | -122.40343 | 1321 ft | 199 kts | 299° |
| 2026-05-06 17:58 | 37.63752 | -122.41939 | 2001 ft | 211 kts | 301° |
| 2026-05-06 17:58 | 37.64504 | -122.43595 | 2526 ft | 226 kts | 301° |
| 2026-05-06 17:59 | 37.65305 | -122.45367 | 3081 ft | 239 kts | 301° |
| 2026-05-06 17:59 | 37.66125 | -122.47229 | 3843 ft | 243 kts | 301° |
| 2026-05-06 17:59 | 37.66909 | -122.49103 | 4596 ft | 246 kts | 295° |
| 2026-05-06 17:59 | 37.67222 | -122.51245 | 5311 ft | 254 kts | 268° |
| 2026-05-06 18:00 | 37.66776 | -122.53412 | 5962 ft | 265 kts | 246° |
| 2026-05-06 18:00 | 37.65776 | -122.55453 | 6503 ft | 279 kts | 233° |
| 2026-05-06 18:00 | 37.64287 | -122.57055 | 7104 ft | 290 kts | 206° |
| 2026-05-06 18:00 | 37.62335 | -122.57619 | 7848 ft | 292 kts | 179° |
| 2026-05-06 18:01 | 37.60353 | -122.57123 | 8604 ft | 292 kts | 158° |
| 2026-05-06 18:01 | 37.58541 | -122.55976 | 9315 ft | 294 kts | 147° |
| 2026-05-06 18:01 | 37.56833 | -122.54517 | 9998 ft | 299 kts | 143° |
| 2026-05-06 18:01 | 37.55122 | -122.52943 | 10525 ft | 310 kts | 142° |
| 2026-05-06 18:02 | 37.53343 | -122.51314 | 10949 ft | 324 kts | 143° |
| 2026-05-06 18:02 | 37.51456 | -122.49625 | 11338 ft | 340 kts | 143° |
| 2026-05-06 18:02 | 37.49480 | -122.47856 | 11695 ft | 355 kts | 141° |
| 2026-05-06 18:02 | 37.47582 | -122.45785 | 12041 ft | 368 kts | 134° |
| 2026-05-06 18:03 | 37.45782 | -122.43447 | 12354 ft | 382 kts | 130° |
| 2026-05-06 18:03 | 37.43955 | -122.40891 | 12801 ft | 392 kts | 129° |
| 2026-05-06 18:03 | 37.42141 | -122.38319 | 13514 ft | 395 kts | 129° |
| 2026-05-06 18:03 | 37.40305 | -122.35741 | 14159 ft | 399 kts | 129° |
| 2026-05-06 18:04 | 37.38435 | -122.33148 | 14822 ft | 404 kts | 129° |
| 2026-05-06 18:04 | 37.36521 | -122.30525 | 15480 ft | 408 kts | 130° |
| 2026-05-06 18:04 | 37.34555 | -122.27848 | 16125 ft | 413 kts | 130° |
| 2026-05-06 18:04 | 37.32611 | -122.25213 | 16750 ft | 417 kts | 130° |
| 2026-05-06 18:05 | 37.30640 | -122.22548 | 17349 ft | 422 kts | 130° |
| 2026-05-06 18:05 | 37.28619 | -122.19817 | 17958 ft | 426 kts | 130° |
| 2026-05-06 18:05 | 37.26594 | -122.17083 | 18552 ft | 430 kts | 130° |
| 2026-05-06 18:05 | 37.24550 | -122.14324 | 19163 ft | 433 kts | 130° |
| 2026-05-06 18:06 | 37.22487 | -122.11541 | 19744 ft | 437 kts | 130° |
| 2026-05-06 18:06 | 37.20390 | -122.08717 | 20297 ft | 442 kts | 130° |
| 2026-05-06 18:06 | 37.18305 | -122.05911 | 20908 ft | 445 kts | 130° |
| 2026-05-06 18:06 | 37.16167 | -122.03035 | 21438 ft | 449 kts | 130° |
| 2026-05-06 18:07 | 37.14053 | -122.00192 | 21979 ft | 453 kts | 130° |
| 2026-05-06 18:07 | 37.11888 | -121.97285 | 22497 ft | 457 kts | 130° |
| 2026-05-06 18:07 | 37.09725 | -121.94387 | 23022 ft | 460 kts | 130° |
| 2026-05-06 18:07 | 37.07545 | -121.91464 | 23573 ft | 463 kts | 130° |
| 2026-05-06 18:08 | 37.05309 | -121.88467 | 24106 ft | 466 kts | 130° |
| 2026-05-06 18:08 | 37.03087 | -121.85493 | 24660 ft | 469 kts | 130° |
| 2026-05-06 18:08 | 37.00839 | -121.82485 | 25184 ft | 472 kts | 130° |
| 2026-05-06 18:08 | 36.98598 | -121.79490 | 25676 ft | 475 kts | 130° |
| 2026-05-06 18:09 | 36.96350 | -121.76488 | 26162 ft | 478 kts | 130° |
| 2026-05-06 18:09 | 36.94064 | -121.73435 | 26614 ft | 482 kts | 130° |
| 2026-05-06 18:09 | 36.91754 | -121.70356 | 27074 ft | 485 kts | 130° |
| 2026-05-06 18:09 | 36.89438 | -121.67271 | 27641 ft | 485 kts | 130° |
| 2026-05-06 18:10 | 36.87137 | -121.64215 | 28385 ft | 481 kts | 130° |
| 2026-05-06 18:10 | 36.84851 | -121.61182 | 29034 ft | 479 kts | 130° |
| 2026-05-06 18:10 | 36.82579 | -121.58168 | 29578 ft | 479 kts | 130° |
| 2026-05-06 18:10 | 36.80299 | -121.55147 | 30143 ft | 477 kts | 129° |
| 2026-05-06 18:11 | 36.78017 | -121.52124 | 30759 ft | 474 kts | 129° |
| 2026-05-06 18:11 | 36.75772 | -121.49152 | 31296 ft | 473 kts | 129° |
| 2026-05-06 18:11 | 36.73511 | -121.46162 | 31845 ft | 471 kts | 129° |
| 2026-05-06 18:11 | 36.71281 | -121.43218 | 32333 ft | 469 kts | 129° |
| 2026-05-06 18:12 | 36.69051 | -121.40274 | 32816 ft | 468 kts | 129° |
| 2026-05-06 18:12 | 36.66822 | -121.37335 | 33335 ft | 465 kts | 128° |
| 2026-05-06 18:12 | 36.64584 | -121.34385 | 33770 ft | 465 kts | 129° |
| 2026-05-06 18:12 | 36.62363 | -121.31458 | 34217 ft | 464 kts | 129° |
| 2026-05-06 18:13 | 36.60260 | -121.28690 | 34688 ft | 463 kts | 129° |
| 2026-05-06 18:13 | 36.58009 | -121.25731 | 35110 ft | 462 kts | 129° |
| 2026-05-06 18:13 | 36.53539 | -121.19860 | 35144 ft | 462 kts | 129° |
| 2026-05-06 18:14 | 36.49118 | -121.14069 | 35143 ft | 461 kts | 128° |
| 2026-05-06 18:14 | 36.44674 | -121.08255 | 35141 ft | 461 kts | 128° |
| 2026-05-06 18:15 | 36.40302 | -121.02389 | 35142 ft | 461 kts | 126° |
| 2026-05-06 18:15 | 36.36131 | -120.96376 | 35137 ft | 460 kts | 125° |
| 2026-05-06 18:16 | 36.31967 | -120.90298 | 35137 ft | 458 kts | 125° |
| 2026-05-06 18:16 | 36.27848 | -120.84324 | 35136 ft | 458 kts | 125° |
| 2026-05-06 18:17 | 36.23652 | -120.78288 | 35138 ft | 459 kts | 125° |
| 2026-05-06 18:17 | 36.19434 | -120.72250 | 35138 ft | 459 kts | 126° |
| 2026-05-06 18:18 | 36.15227 | -120.66249 | 35138 ft | 460 kts | 126° |
| 2026-05-06 18:18 | 36.11003 | -120.60241 | 35138 ft | 460 kts | 125° |
| 2026-05-06 18:19 | 36.06813 | -120.54293 | 35138 ft | 458 kts | 125° |
| 2026-05-06 18:19 | 36.02589 | -120.48306 | 35138 ft | 459 kts | 125° |
| 2026-05-06 18:20 | 35.98405 | -120.42384 | 35139 ft | 460 kts | 125° |
| 2026-05-06 18:20 | 35.94176 | -120.36407 | 35140 ft | 461 kts | 125° |
| 2026-05-06 18:21 | 35.89949 | -120.30471 | 35140 ft | 461 kts | 127° |
| 2026-05-06 18:21 | 35.85266 | -120.24914 | 35141 ft | 469 kts | 137° |
| 2026-05-06 18:22 | 35.79849 | -120.20392 | 35140 ft | 473 kts | 143° |
| 2026-05-06 18:22 | 35.74728 | -120.16612 | 35141 ft | 474 kts | 144° |
| 2026-05-06 18:23 | 35.70016 | -120.13191 | 35140 ft | 474 kts | 144° |
| 2026-05-06 18:23 | 35.64319 | -120.09013 | 35140 ft | 474 kts | 143° |
| 2026-05-06 18:24 | 35.59899 | -120.05727 | 35141 ft | 473 kts | 143° |
| 2026-05-06 18:24 | 35.55819 | -120.02672 | 35141 ft | 473 kts | 143° |
| 2026-05-06 18:25 | 35.50166 | -119.98425 | 35143 ft | 472 kts | 143° |
| 2026-05-06 18:25 | 35.44575 | -119.94222 | 35143 ft | 473 kts | 143° |
| 2026-05-06 18:26 | 35.38936 | -119.89990 | 35143 ft | 473 kts | 143° |
| 2026-05-06 18:26 | 35.33342 | -119.85798 | 35144 ft | 472 kts | 143° |
| 2026-05-06 18:27 | 35.27763 | -119.81548 | 35148 ft | 470 kts | 140° |
| 2026-05-06 18:27 | 35.22478 | -119.76819 | 35149 ft | 466 kts | 136° |
| 2026-05-06 18:28 | 35.17380 | -119.71932 | 35147 ft | 465 kts | 135° |
| 2026-05-06 18:28 | 35.12285 | -119.67059 | 35145 ft | 465 kts | 136° |
| 2026-05-06 18:29 | 35.07160 | -119.62223 | 34790 ft | 461 kts | 136° |
| 2026-05-06 18:29 | 35.04642 | -119.59870 | 34240 ft | 458 kts | 136° |
| 2026-05-06 18:29 | 35.02103 | -119.57503 | 33558 ft | 458 kts | 136° |
| 2026-05-06 18:30 | 34.99601 | -119.55175 | 32830 ft | 460 kts | 136° |
| 2026-05-06 18:30 | 34.97046 | -119.52799 | 32030 ft | 462 kts | 136° |
| 2026-05-06 18:30 | 34.94495 | -119.50429 | 31200 ft | 465 kts | 136° |
| 2026-05-06 18:30 | 34.91909 | -119.48029 | 30333 ft | 467 kts | 137° |
| 2026-05-06 18:31 | 34.89308 | -119.45633 | 29343 ft | 472 kts | 137° |
| 2026-05-06 18:31 | 34.86697 | -119.43276 | 29148 ft | 467 kts | 138° |
| 2026-05-06 18:31 | 34.81343 | -119.38495 | 29162 ft | 482 kts | 138° |
| 2026-05-06 18:32 | 34.75940 | -119.33697 | 29177 ft | 467 kts | 139° |
| 2026-05-06 18:32 | 34.73365 | -119.31432 | 29067 ft | 448 kts | 139° |
| 2026-05-06 18:32 | 34.70848 | -119.29237 | 28669 ft | 440 kts | 139° |
| 2026-05-06 18:33 | 34.68370 | -119.27081 | 28035 ft | 438 kts | 139° |
| 2026-05-06 18:33 | 34.65898 | -119.24928 | 27413 ft | 436 kts | 139° |
| 2026-05-06 18:33 | 34.63451 | -119.22800 | 26906 ft | 432 kts | 139° |
| 2026-05-06 18:33 | 34.60984 | -119.20670 | 26338 ft | 428 kts | 139° |
| 2026-05-06 18:34 | 34.58595 | -119.18615 | 25507 ft | 425 kts | 139° |
| 2026-05-06 18:34 | 34.56160 | -119.16522 | 24820 ft | 418 kts | 139° |
| 2026-05-06 18:34 | 34.53816 | -119.14487 | 24080 ft | 413 kts | 139° |
| 2026-05-06 18:34 | 34.51512 | -119.12457 | 23326 ft | 409 kts | 139° |
| 2026-05-06 18:35 | 34.49245 | -119.10446 | 22600 ft | 405 kts | 138° |
| 2026-05-06 18:35 | 34.47000 | -119.08451 | 21870 ft | 401 kts | 139° |
| 2026-05-06 18:35 | 34.44758 | -119.06463 | 21150 ft | 397 kts | 139° |
| 2026-05-06 18:35 | 34.42556 | -119.04524 | 20490 ft | 391 kts | 139° |
| 2026-05-06 18:36 | 34.40358 | -119.02606 | 19774 ft | 388 kts | 139° |
| 2026-05-06 18:36 | 34.38191 | -119.00726 | 19062 ft | 384 kts | 139° |
| 2026-05-06 18:36 | 34.36034 | -118.98861 | 18363 ft | 379 kts | 139° |
| 2026-05-06 18:36 | 34.33864 | -118.96981 | 17660 ft | 375 kts | 139° |
| 2026-05-06 18:37 | 34.31772 | -118.95126 | 16962 ft | 371 kts | 138° |
| 2026-05-06 18:37 | 34.30407 | -118.93890 | 16510 ft | 368 kts | 138° |
| 2026-05-06 18:37 | 34.27689 | -118.91405 | 15646 ft | 361 kts | 138° |
| 2026-05-06 18:37 | 34.25706 | -118.89588 | 14982 ft | 357 kts | 138° |
| 2026-05-06 18:38 | 34.23740 | -118.87781 | 14294 ft | 354 kts | 138° |
| 2026-05-06 18:38 | 34.21787 | -118.85979 | 13633 ft | 350 kts | 138° |
| 2026-05-06 18:38 | 34.19867 | -118.84208 | 13180 ft | 339 kts | 138° |
| 2026-05-06 18:38 | 34.18030 | -118.82523 | 13002 ft | 322 kts | 138° |
| 2026-05-06 18:39 | 34.16295 | -118.80923 | 12786 ft | 307 kts | 136° |
| 2026-05-06 18:39 | 34.14680 | -118.79283 | 12378 ft | 300 kts | 133° |
| 2026-05-06 18:39 | 34.13142 | -118.77571 | 11983 ft | 298 kts | 132° |
| 2026-05-06 18:40 | 34.10090 | -118.74129 | 11203 ft | 302 kts | 133° |
| 2026-05-06 18:40 | 34.08536 | -118.72424 | 10813 ft | 300 kts | 133° |
| 2026-05-06 18:40 | 34.06980 | -118.70735 | 10423 ft | 299 kts | 134° |
| 2026-05-06 18:40 | 34.05427 | -118.69052 | 10044 ft | 297 kts | 134° |
| 2026-05-06 18:41 | 34.03969 | -118.67370 | 9875 ft | 285 kts | 127° |
| 2026-05-06 18:41 | 34.02877 | -118.65461 | 9615 ft | 274 kts | 108° |
| 2026-05-06 18:41 | 34.02472 | -118.63248 | 9225 ft | 268 kts | 92° |
| 2026-05-06 18:41 | 34.02345 | -118.61018 | 8883 ft | 266 kts | 90° |
| 2026-05-06 18:42 | 34.02218 | -118.58803 | 8550 ft | 265 kts | 91° |
| 2026-05-06 18:42 | 34.02044 | -118.56588 | 8217 ft | 264 kts | 92° |
| 2026-05-06 18:42 | 34.01844 | -118.54424 | 7907 ft | 262 kts | 93° |
| 2026-05-06 18:42 | 34.01633 | -118.52221 | 7588 ft | 260 kts | 93° |
| 2026-05-06 18:43 | 34.01429 | -118.50088 | 7481 ft | 249 kts | 92° |
| 2026-05-06 18:43 | 34.01237 | -118.48061 | 7412 ft | 238 kts | 92° |
| 2026-05-06 18:43 | 34.01074 | -118.46107 | 7330 ft | 227 kts | 89° |
| 2026-05-06 18:43 | 34.01169 | -118.44250 | 6993 ft | 226 kts | 76° |
| 2026-05-06 18:44 | 34.01521 | -118.42388 | 6567 ft | 227 kts | 73° |
| 2026-05-06 18:44 | 34.01894 | -118.40550 | 6186 ft | 226 kts | 73° |
| 2026-05-06 18:44 | 34.02233 | -118.38718 | 5748 ft | 226 kts | 75° |
| 2026-05-06 18:44 | 34.02554 | -118.36869 | 5325 ft | 224 kts | 75° |
| 2026-05-06 18:45 | 34.02840 | -118.35018 | 4882 ft | 224 kts | 79° |
| 2026-05-06 18:45 | 34.03034 | -118.33186 | 4462 ft | 223 kts | 82° |
| 2026-05-06 18:45 | 34.03200 | -118.31329 | 4036 ft | 221 kts | 82° |
| 2026-05-06 18:45 | 34.03379 | -118.29485 | 3625 ft | 220 kts | 82° |
| 2026-05-06 18:46 | 34.03572 | -118.27665 | 3169 ft | 220 kts | 81° |
| 2026-05-06 18:46 | 34.03779 | -118.25849 | 2974 ft | 217 kts | 81° |
| 2026-05-06 18:46 | 34.03991 | -118.24044 | 2974 ft | 221 kts | 81° |
| 2026-05-06 18:46 | 34.04203 | -118.22199 | 2974 ft | 221 kts | 81° |
| 2026-05-06 18:47 | 34.04335 | -118.20363 | 2970 ft | 221 kts | 93° |
| 2026-05-06 18:47 | 34.03814 | -118.18630 | 2968 ft | 222 kts | 126° |
| 2026-05-06 18:47 | 34.02592 | -118.17514 | 2971 ft | 225 kts | 159° |
| 2026-05-06 18:47 | 34.01055 | -118.17112 | 2972 ft | 224 kts | 172° |
| 2026-05-06 18:48 | 33.99512 | -118.16847 | 2968 ft | 223 kts | 172° |
| 2026-05-06 18:48 | 33.97983 | -118.16577 | 2968 ft | 222 kts | 173° |
| 2026-05-06 18:48 | 33.96443 | -118.16752 | 2966 ft | 222 kts | 201° |
| 2026-05-06 18:48 | 33.95226 | -118.17867 | 2967 ft | 222 kts | 234° |
| 2026-05-06 18:49 | 33.94724 | -118.19594 | 2968 ft | 219 kts | 268° |
| 2026-05-06 18:49 | 33.95042 | -118.21268 | 2960 ft | 197 kts | 294° |
| 2026-05-06 18:49 | 33.95622 | -118.22714 | 2968 ft | 188 kts | 303° |
| 2026-05-06 18:49 | 33.96587 | -118.23693 | 2967 ft | 186 kts | 340° |
| 2026-05-06 18:50 | 33.97876 | -118.23733 | 2970 ft | 187 kts | 16° |
| 2026-05-06 18:50 | 33.99079 | -118.23161 | 2972 ft | 187 kts | 22° |
| 2026-05-06 18:50 | 34.00298 | -118.22558 | 2970 ft | 186 kts | 21° |
| 2026-05-06 18:50 | 34.01503 | -118.21976 | 2972 ft | 185 kts | 21° |
| 2026-05-06 18:51 | 34.02700 | -118.21391 | 2975 ft | 187 kts | 21° |
| 2026-05-06 18:51 | 34.03883 | -118.20744 | 2970 ft | 188 kts | 33° |
| 2026-05-06 18:51 | 34.04680 | -118.19517 | 2969 ft | 190 kts | 71° |
| 2026-05-06 18:51 | 34.04668 | -118.17954 | 2970 ft | 190 kts | 111° |
| 2026-05-06 18:52 | 34.03834 | -118.16736 | 2973 ft | 192 kts | 149° |
| 2026-05-06 18:52 | 34.02565 | -118.16296 | 2978 ft | 192 kts | 173° |
| 2026-05-06 18:52 | 34.01260 | -118.16512 | 2966 ft | 191 kts | 207° |
| 2026-05-06 18:52 | 34.00276 | -118.17567 | 2976 ft | 191 kts | 232° |
| 2026-05-06 18:53 | 33.99439 | -118.18832 | 2969 ft | 191 kts | 232° |
| 2026-05-06 18:53 | 33.98579 | -118.20090 | 2969 ft | 191 kts | 231° |
| 2026-05-06 18:53 | 33.97732 | -118.21320 | 2967 ft | 190 kts | 235° |
| 2026-05-06 18:53 | 33.97176 | -118.22716 | 2937 ft | 180 kts | 257° |
| 2026-05-06 18:54 | 33.96941 | -118.24151 | 2751 ft | 173 kts | 261° |
| 2026-05-06 18:54 | 33.96744 | -118.25569 | 2510 ft | 169 kts | 262° |
| 2026-05-06 18:54 | 33.96580 | -118.26952 | 2288 ft | 164 kts | 263° |
| 2026-05-06 18:54 | 33.96437 | -118.28301 | 2068 ft | 163 kts | 263° |
| 2026-05-06 18:55 | 33.96297 | -118.29649 | 1849 ft | 156 kts | 263° |
| 2026-05-06 18:55 | 33.96167 | -118.30900 | 1680 ft | 148 kts | 262° |
| 2026-05-06 18:55 | 33.96041 | -118.32117 | 1449 ft | 146 kts | 263° |
| 2026-05-06 18:55 | 33.95916 | -118.33331 | 1261 ft | 147 kts | 263° |
| 2026-05-06 18:56 | 33.95790 | -118.34552 | 1058 ft | 144 kts | 263° |
| 2026-05-06 18:56 | 33.95671 | -118.35737 | 857 ft | 140 kts | 262° |
| 2026-05-06 18:56 | 33.95542 | -118.36897 | 752 ft | 139 kts | 262° |
| 2026-05-06 18:56 | 33.95427 | -118.38063 | 581 ft | 144 kts | 263° |
| 2026-05-06 18:57 | 33.95301 | -118.39261 | 356 ft | 144 kts | 262° |
| 2026-05-06 18:57 | 33.95185 | -118.40430 | 135 ft | 136 kts | 262° |
| 2026-05-06 18:57 | 33.95076 | -118.41472 | 124 ft | 100 kts | 262° |
| 2026-05-06 18:57 | 33.95027 | -118.41969 | 121 ft | 31 kts | 262° |
| 2026-05-06 18:58 | 33.94964 | -118.42158 | 119 ft | 22 kts | 235° |
| 2026-05-06 18:58 | 33.94890 | -118.42263 | 118 ft | 14 kts | 219° |
| 2026-05-06 18:58 | 33.94791 | -118.42283 | 117 ft | 15 kts | 174° |
| 2026-05-06 18:58 | 33.94683 | -118.42268 | 117 ft | 15 kts | 173° |
| 2026-05-06 18:59 | 33.94608 | -118.42206 | 117 ft | 13 kts | 98° |
| 2026-05-06 18:59 | 33.94614 | -118.42100 | 118 ft | 11 kts | 82° |
| 2026-05-06 18:59 | 33.94626 | -118.41991 | 119 ft | 13 kts | 84° |
| 2026-05-06 18:59 | 33.94633 | -118.41878 | 120 ft | 13 kts | 84° |
| 2026-05-06 19:00 | 33.94645 | -118.41766 | 121 ft | 14 kts | 83° |
| 2026-05-06 19:00 | 33.94656 | -118.41645 | 121 ft | 15 kts | 84° |
| 2026-05-06 19:00 | 33.94670 | -118.41517 | 122 ft | 14 kts | 83° |
| 2026-05-06 19:00 | 33.94678 | -118.41438 | 123 ft | 15 kts | 83° |
| 2026-05-06 19:01 | 33.94697 | -118.41270 | 123 ft | 14 kts | 78° |
| 2026-05-06 19:01 | 33.94725 | -118.41159 | 123 ft | 13 kts | 78° |
| 2026-05-06 19:01 | 33.94737 | -118.41055 | 124 ft | 12 kts | 82° |
| 2026-05-06 19:01 | 33.94744 | -118.40958 | 124 ft | 11 kts | 105° |
| 2026-05-06 19:02 | 33.94687 | -118.40911 | 124 ft | 9 kts | 172° |
| 2026-05-06 19:02 | 33.94622 | -118.40900 | 124 ft | 8 kts | 160° |
| 2026-05-06 19:02 | 33.94599 | -118.40850 | 123 ft | 7 kts | 91° |
| 2026-05-06 19:02 | 33.94599 | -118.40820 | 122 ft | 0 kts | 83° |